Time;durP1;ratioP1;P1;durP2;ratioP2;P2;SDS_P1;SDS_P2;PMS_P1;PMS_P2;Temp;Humidity;BMP_temperature;BMP_pressure;BME280_temperature;BME280_humidity;BME280_pressure;Samples;Min_cycle;Max_cycle;Signal;HPM_P1;HPM_P2
2021/09/21 00:01:55;;;;;;;;;;;16.50;72.10;;;;;;4982425;28;95405;-53
2021/09/21 00:04:27;;;;;;;2.47;1.42;;;16.60;71.90;;;;;;4987333;28;95933;-52
2021/09/21 00:06:58;;;;;;;4.10;1.77;;;16.60;71.80;;;;;;4987644;28;95259;-52
2021/09/21 00:09:29;;;;;;;3.38;1.60;;;16.70;71.70;;;;;;4979127;28;96384;-52
2021/09/21 00:12:00;;;;;;;3.53;1.60;;;16.70;71.50;;;;;;4988223;28;95369;-51
2021/09/21 00:14:31;;;;;;;3.50;1.45;;;16.80;71.50;;;;;;4982872;28;95333;-52
2021/09/21 00:17:02;;;;;;;3.57;1.23;;;16.80;71.30;;;;;;4977085;28;95688;-50
2021/09/21 00:19:33;;;;;;;3.75;1.20;;;16.80;70.80;;;;;;4984104;28;95949;-51
2021/09/21 00:22:05;;;;;;;2.40;1.50;;;16.90;70.50;;;;;;4974881;28;95707;-51
2021/09/21 00:24:36;;;;;;;5.45;1.63;;;16.90;70.10;;;;;;4978154;28;95974;-52
2021/09/21 00:27:06;;;;;;;2.58;1.10;;;16.90;69.80;;;;;;4980458;28;95268;-51
2021/09/21 00:29:38;;;;;;;3.95;1.23;;;17.00;69.50;;;;;;4983860;28;96515;-50
2021/09/21 00:32:15;;;;;;;4.85;1.23;;;16.90;69.20;;;;;;4978002;28;97248;-52
2021/09/21 00:34:46;;;;;;;4.30;1.20;;;17.00;69.10;;;;;;4984342;28;95706;-50
2021/09/21 00:37:17;;;;;;;2.55;1.30;;;17.00;68.90;;;;;;4978050;28;95680;-49
2021/09/21 00:39:48;;;;;;;2.83;1.23;;;17.00;68.90;;;;;;4986400;28;95926;-49
2021/09/21 00:42:30;;;;;;;1.67;1.08;;;17.00;69.20;;;;;;4984236;28;95965;-50
2021/09/21 00:45:07;;;;;;;3.17;1.38;;;17.10;68.80;;;;;;4979057;28;95895;-48
2021/09/21 00:47:37;;;;;;;3.33;1.35;;;17.10;68.90;;;;;;4987265;28;95760;-49
2021/09/21 00:50:08;;;;;;;3.20;1.42;;;17.10;69.00;;;;;;4984619;28;95955;-51
2021/09/21 00:52:39;;;;;;;4.28;1.10;;;17.20;69.10;;;;;;4974704;28;95847;-50
2021/09/21 00:55:11;;;;;;;3.22;1.00;;;17.20;68.80;;;;;;4977196;28;95915;-50
2021/09/21 00:57:41;;;;;;;;;;;17.20;68.70;;;;;;4976718;28;95330;-50
2021/09/21 01:00:15;;;;;;;2.20;1.00;;;17.30;68.60;;;;;;4974431;28;96422;-49
2021/09/21 01:02:46;;;;;;;2.25;1.15;;;17.30;69.10;;;;;;4984720;28;96332;-49
2021/09/21 01:05:18;;;;;;;2.10;0.98;;;17.30;68.50;;;;;;4983433;28;96002;-49
2021/09/21 01:07:50;;;;;;;4.35;1.30;;;17.40;68.50;;;;;;4980658;28;95371;-50
2021/09/21 01:10:25;;;;;;;2.78;1.83;;;17.50;68.40;;;;;;4977092;28;96116;-48
2021/09/21 01:12:57;;;;;;;1.42;0.93;;;17.60;68.20;;;;;;4972358;28;95943;-49
2021/09/21 01:15:28;;;;;;;4.20;1.15;;;17.60;68.20;;;;;;4970004;28;95692;-49
2021/09/21 01:18:00;;;;;;;5.10;1.30;;;17.60;68.00;;;;;;4974798;28;96028;-51
2021/09/21 01:20:30;;;;;;;2.45;1.00;;;17.70;67.90;;;;;;4977438;28;96557;-52
2021/09/21 01:23:03;;;;;;;5.20;1.73;;;17.60;67.80;;;;;;4975702;28;95780;-51
2021/09/21 01:25:34;;;;;;;2.70;1.13;;;17.70;67.70;;;;;;4971687;28;95717;-52
2021/09/21 01:28:05;;;;;;;3.92;1.40;;;17.70;67.60;;;;;;4981018;28;95352;-51
2021/09/21 01:30:37;;;;;;;3.35;1.60;;;17.70;67.50;;;;;;4969900;28;96407;-49
2021/09/21 01:33:10;;;;;;;1.90;1.05;;;17.80;67.60;;;;;;4976067;28;96114;-49
2021/09/21 01:35:41;;;;;;;2.10;0.82;;;17.80;67.50;;;;;;4981563;28;95724;-49
2021/09/21 01:38:12;;;;;;;3.10;1.02;;;17.90;67.50;;;;;;4981296;28;95269;-52
2021/09/21 01:40:42;;;;;;;2.17;1.20;;;17.90;67.10;;;;;;4984462;28;96471;-50
2021/09/21 01:43:12;;;;;;;5.40;1.63;;;17.90;66.90;;;;;;4982242;28;96123;-50
2021/09/21 01:45:42;;;;;;;2.45;1.80;;;18.00;66.70;;;;;;4972926;28;95443;-52
2021/09/21 01:48:12;;;;;;;5.25;1.42;;;18.00;66.60;;;;;;4977998;28;95657;-48
2021/09/21 01:51:20;;;;;;;6.35;1.65;;;18.00;66.60;;;;;;4979890;28;96298;-49
2021/09/21 01:59:04;;;;;;;3.88;1.35;;;18.20;67.00;;;;;;4978700;28;96575;-49
2021/09/21 02:01:37;;;;;;;3.45;1.48;;;18.20;67.10;;;;;;4971232;28;98400;-49
2021/09/21 02:04:10;;;;;;;2.45;1.10;;;18.30;67.20;;;;;;4977717;28;95360;-51
2021/09/21 02:06:42;;;;;;;4.93;2.08;;;18.30;67.20;;;;;;4980345;28;95705;-51
2021/09/21 02:09:14;;;;;;;3.83;1.63;;;18.40;67.30;;;;;;4980632;28;95889;-55
2021/09/21 02:11:47;;;;;;;5.32;1.60;;;18.40;67.40;;;;;;4978745;28;95914;-49
2021/09/21 02:14:19;;;;;;;2.67;1.38;;;18.50;67.50;;;;;;4981127;28;96116;-50
2021/09/21 02:16:54;;;;;;;2.70;1.48;;;18.50;67.40;;;;;;4978940;28;99155;-51
2021/09/21 02:19:26;;;;;;;2.90;1.30;;;18.60;67.40;;;;;;4984795;28;95228;-53
2021/09/21 02:21:56;;;;;;;2.30;1.38;;;18.60;67.40;;;;;;4985147;28;96536;-52
2021/09/21 02:24:26;;;;;;;2.03;1.40;;;18.70;67.40;;;;;;4984465;28;95356;-50
2021/09/21 02:26:56;;;;;;;3.97;1.40;;;18.70;67.50;;;;;;4980500;28;95693;-50
2021/09/21 02:29:27;;;;;;;2.05;1.20;;;18.70;67.50;;;;;;4982942;28;95446;-51
2021/09/21 02:31:59;;;;;;;6.72;2.15;;;18.80;67.50;;;;;;4979682;28;95857;-50
2021/09/21 02:34:31;;;;;;;2.67;1.40;;;18.80;67.50;;;;;;4984652;28;95803;-53
2021/09/21 02:37:01;;;;;;;1.63;1.23;;;18.80;67.50;;;;;;4979287;28;95730;-53
2021/09/21 02:39:33;;;;;;;;;;;18.90;67.30;;;;;;4985758;28;95784;-50
2021/09/21 02:42:03;;;;;;;3.28;1.50;;;18.90;67.30;;;;;;4986760;28;95903;-51
2021/09/21 02:44:34;;;;;;;2.33;1.45;;;19.00;67.30;;;;;;4985723;28;96004;-50
2021/09/21 02:47:06;;;;;;;4.72;1.75;;;19.00;67.20;;;;;;4982335;28;95637;-51
2021/09/21 02:49:37;;;;;;;2.03;1.08;;;19.00;67.20;;;;;;4988171;28;96030;-51
2021/09/21 02:52:07;;;;;;;;;;;19.10;67.20;;;;;;4987795;28;96058;-55
2021/09/21 02:54:41;;;;;;;3.00;1.42;;;19.10;67.20;;;;;;4990649;28;95678;-55
2021/09/21 02:57:12;;;;;;;1.80;1.35;;;19.10;67.10;;;;;;4986295;28;96054;-49
2021/09/21 02:59:44;;;;;;;4.05;1.77;;;19.20;67.10;;;;;;4987182;28;95473;-54
2021/09/21 03:02:16;;;;;;;3.97;1.40;;;19.20;66.10;;;;;;4980651;28;95883;-54
2021/09/21 03:04:56;;;;;;;3.78;1.35;;;19.20;66.60;;;;;;4986262;28;95650;-54
2021/09/21 03:13:41;;;;;;;2.53;1.23;;;19.30;66.60;;;;;;4987573;28;97829;-53
2021/09/21 03:19:02;;;;;;;2.58;1.35;;;19.30;66.80;;;;;;4986109;28;95419;-51
2021/09/21 03:21:32;;;;;;;1.67;1.02;;;19.40;66.70;;;;;;4985637;28;96031;-53
2021/09/21 03:24:02;;;;;;;2.90;1.30;;;19.40;66.70;;;;;;4983118;28;95909;-51
2021/09/21 03:26:32;;;;;;;3.20;1.60;;;19.50;66.80;;;;;;4985970;28;95575;-50
2021/09/21 03:29:01;;;;;;;5.07;2.40;;;19.50;66.60;;;;;;4983353;28;96528;-52
2021/09/21 03:31:33;;;;;;;3.25;1.85;;;19.40;62.90;;;;;;4970342;28;96151;-50
2021/09/21 03:34:04;;;;;;;4.53;2.35;;;19.20;63.30;;;;;;4972724;28;96823;-55
2021/09/21 03:36:35;;;;;;;4.15;1.88;;;19.10;63.60;;;;;;4978930;28;95796;-54
2021/09/21 03:39:05;;;;;;;;;;;18.90;64.00;;;;;;4977248;28;95997;-52
2021/09/21 03:41:35;;;;;;;4.78;2.30;;;18.90;64.20;;;;;;4975602;28;96168;-52
2021/09/21 03:44:05;;;;;;;3.58;2.03;;;18.90;64.00;;;;;;4981761;28;95825;-50
2021/09/21 03:46:38;;;;;;;2.83;1.48;;;18.80;64.10;;;;;;4975939;28;96014;-52
2021/09/21 03:49:09;;;;;;;4.55;2.47;;;18.70;64.10;;;;;;4976987;28;95635;-52
2021/09/21 03:51:40;;;;;;;3.70;1.80;;;18.60;64.20;;;;;;4981157;28;95477;-52
2021/09/21 03:54:12;;;;;;;6.95;1.88;;;18.60;64.40;;;;;;4979630;28;95956;-50
2021/09/21 03:56:43;;;;;;;4.63;1.95;;;18.50;64.40;;;;;;4973670;28;95299;-49
2021/09/21 03:59:14;;;;;;;3.25;1.95;;;18.50;64.50;;;;;;4976280;28;95708;-52
2021/09/21 04:01:46;;;;;;;5.13;1.88;;;18.50;64.60;;;;;;4974772;28;95915;-50
2021/09/21 04:04:17;;;;;;;4.55;1.92;;;18.50;64.80;;;;;;4981906;28;96475;-50
2021/09/21 04:06:48;;;;;;;;;;;18.50;65.00;;;;;;4982298;28;95758;-51
2021/09/21 04:09:18;;;;;;;4.45;1.92;;;18.60;65.20;;;;;;4997985;27;96549;-50
2021/09/21 04:11:50;;;;;;;2.75;1.80;;;18.70;65.30;;;;;;4978955;28;95887;-50
2021/09/21 04:14:21;;;;;;;4.97;1.92;;;18.80;65.50;;;;;;5012856;27;98140;-49
2021/09/21 04:16:52;;;;;;;;;;;18.90;65.50;;;;;;4978694;28;97799;-51
2021/09/21 04:19:23;;;;;;;2.40;1.42;;;18.90;65.60;;;;;;4984177;28;96473;-49
2021/09/21 04:21:54;;;;;;;2.70;1.63;;;19.00;65.60;;;;;;4983484;28;95826;-50
2021/09/21 04:24:25;;;;;;;1.90;1.40;;;19.00;65.60;;;;;;4980133;28;96345;-51
2021/09/21 04:26:55;;;;;;;2.13;1.33;;;19.00;65.70;;;;;;4983520;28;96234;-52
2021/09/21 04:29:25;;;;;;;2.55;1.33;;;19.10;65.90;;;;;;4985145;28;95703;-51
2021/09/21 04:32:00;;;;;;;2.63;1.98;;;19.10;65.90;;;;;;4982448;28;95669;-50
2021/09/21 04:34:32;;;;;;;2.35;1.33;;;19.20;66.10;;;;;;4987639;28;96170;-49
2021/09/21 04:37:04;;;;;;;2.53;1.52;;;19.20;66.10;;;;;;4980264;28;95301;-50
2021/09/21 04:39:40;;;;;;;2.92;1.40;;;19.30;66.20;;;;;;4983498;28;96185;-49
2021/09/21 04:42:10;;;;;;;2.17;1.40;;;19.30;66.20;;;;;;4984535;28;95485;-50
2021/09/21 04:44:41;;;;;;;2.33;1.30;;;19.30;66.20;;;;;;4985104;28;96050;-49
2021/09/21 04:47:12;;;;;;;3.97;2.05;;;19.40;66.20;;;;;;4980938;28;96002;-53
2021/09/21 04:49:43;;;;;;;2.17;1.10;;;19.40;66.20;;;;;;4980992;28;95247;-51
2021/09/21 04:52:15;;;;;;;3.13;1.50;;;19.50;66.30;;;;;;4977245;28;97679;-49
2021/09/21 04:54:48;;;;;;;1.95;1.20;;;19.50;66.40;;;;;;4976658;28;95902;-49
2021/09/21 04:57:20;;;;;;;2.55;1.40;;;19.50;66.40;;;;;;4980315;28;95951;-51
2021/09/21 04:59:51;;;;;;;2.15;1.42;;;19.50;66.40;;;;;;4982909;28;96473;-49
2021/09/21 05:02:22;;;;;;;;;;;19.50;66.40;;;;;;4975566;28;97873;-48
2021/09/21 05:04:53;;;;;;;2.72;1.00;;;19.60;66.40;;;;;;4983722;28;96535;-50
2021/09/21 05:07:24;;;;;;;1.73;1.25;;;19.60;67.00;;;;;;4984558;28;98699;-50
2021/09/21 05:09:55;;;;;;;4.20;1.77;;;19.70;65.90;;;;;;4979606;28;95428;-52
2021/09/21 05:12:26;;;;;;;3.60;2.20;;;19.60;65.10;;;;;;4985915;28;96023;-50
2021/09/21 05:14:57;;;;;;;2.67;1.77;;;19.70;64.80;;;;;;4984900;28;96525;-49
2021/09/21 05:17:28;;;;;;;3.58;1.70;;;19.70;64.60;;;;;;4981771;28;98971;-50
2021/09/21 05:19:59;;;;;;;4.10;1.95;;;19.70;64.40;;;;;;4984069;28;96273;-51
2021/09/21 05:22:29;;;;;;;3.80;2.38;;;19.70;64.60;;;;;;4985025;28;95255;-50
2021/09/21 05:24:59;;;;;;;3.28;1.77;;;19.70;64.60;;;;;;4985403;28;96257;-48
2021/09/21 05:27:29;;;;;;;2.90;1.80;;;19.70;64.50;;;;;;4983979;28;95933;-50
2021/09/21 05:30:01;;;;;;;6.43;2.00;;;19.70;64.20;;;;;;4985998;28;95798;-50
2021/09/21 05:32:32;;;;;;;3.33;1.50;;;19.70;64.20;;;;;;4982217;28;96056;-50
2021/09/21 05:35:04;;;;;;;4.88;2.22;;;19.70;63.80;;;;;;4985596;28;96505;-51
2021/09/21 05:37:34;;;;;;;2.33;1.70;;;19.70;63.90;;;;;;4983129;28;95304;-49
2021/09/21 05:40:07;;;;;;;3.75;1.67;;;19.70;63.60;;;;;;4981427;28;95977;-49
2021/09/21 05:42:38;;;;;;;3.35;1.90;;;19.70;63.60;;;;;;4983846;28;96003;-50
2021/09/21 05:45:09;;;;;;;2.67;1.80;;;19.70;63.50;;;;;;4981465;28;96085;-49
2021/09/21 05:47:40;;;;;;;4.13;2.20;;;19.70;63.80;;;;;;4983329;28;96225;-48
2021/09/21 05:50:11;;;;;;;;;;;19.70;63.60;;;;;;4983828;28;95412;-48
2021/09/21 05:52:45;;;;;;;2.95;1.75;;;19.80;63.70;;;;;;4983572;28;96419;-48
2021/09/21 05:55:17;;;;;;;3.95;1.77;;;19.80;63.60;;;;;;4981648;28;96492;-48
2021/09/21 05:57:50;;;;;;;3.65;2.05;;;19.80;63.60;;;;;;4983232;28;95802;-48
2021/09/21 06:00:21;;;;;;;4.88;2.13;;;19.80;54.90;;;;;;4979932;28;96720;-48
2021/09/21 06:02:53;;;;;;;4.23;2.07;;;19.80;63.40;;;;;;4968594;28;96217;-49
2021/09/21 06:05:26;;;;;;;5.95;1.92;;;19.80;63.40;;;;;;4983280;28;95979;-51
2021/09/21 06:07:57;;;;;;;3.30;1.95;;;19.80;63.30;;;;;;4979589;28;95993;-49
2021/09/21 06:10:28;;;;;;;;;;;19.80;63.30;;;;;;4984289;28;95390;-50
2021/09/21 06:13:01;;;;;;;3.58;1.77;;;19.80;62.80;;;;;;4986633;28;96042;-51
2021/09/21 06:15:32;;;;;;;2.78;1.60;;;19.80;62.80;;;;;;4976675;28;95936;-51
2021/09/21 06:18:07;;;;;;;3.25;1.75;;;19.70;62.80;;;;;;4982657;28;96017;-49
2021/09/21 06:20:39;;;;;;;4.18;1.40;;;19.70;62.80;;;;;;4985255;28;95456;-52
2021/09/21 06:23:10;;;;;;;3.13;1.65;;;19.70;62.80;;;;;;5016821;27;95779;-48
2021/09/21 06:25:41;;;;;;;3.75;1.95;;;19.70;62.80;;;;;;4988244;28;96420;-50
2021/09/21 06:28:11;;;;;;;5.40;2.27;;;19.70;62.80;;;;;;4988395;28;97199;-49
2021/09/21 06:30:42;;;;;;;8.03;3.20;;;19.70;62.80;;;;;;4983273;27;96062;-50
2021/09/21 06:33:14;;;;;;;4.85;3.22;;;19.70;62.80;;;;;;4988256;28;95412;-50
2021/09/21 06:35:44;;;;;;;;;;;19.70;62.70;;;;;;4987603;28;95864;-49
2021/09/21 06:38:16;;;;;;;8.97;3.63;;;19.70;62.80;;;;;;4988651;28;96059;-50
2021/09/21 06:40:46;;;;;;;14.17;4.37;;;19.70;62.80;;;;;;4986750;28;95885;-49
2021/09/21 06:43:16;;;;;;;9.38;4.35;;;19.70;62.90;;;;;;4987665;28;95584;-50
2021/09/21 06:45:47;;;;;;;6.55;4.38;;;19.70;62.80;;;;;;4984842;28;95950;-51
2021/09/21 06:48:18;;;;;;;7.43;3.83;;;19.70;63.00;;;;;;4987319;28;95907;-52
2021/09/21 06:50:50;;;;;;;6.47;3.47;;;19.70;62.90;;;;;;4986719;28;95826;-48
2021/09/21 06:53:20;;;;;;;;;;;19.70;62.90;;;;;;4986138;28;95921;-49
2021/09/21 06:55:52;;;;;;;8.23;3.50;;;19.80;62.90;;;;;;4986796;28;97630;-48
2021/09/21 06:58:23;;;;;;;8.25;3.42;;;19.80;62.90;;;;;;4986802;28;95841;-49
2021/09/21 07:00:56;;;;;;;6.63;3.40;;;19.80;62.90;;;;;;4982990;28;95372;-51
2021/09/21 07:03:28;;;;;;;6.28;3.88;;;19.90;62.90;;;;;;4988346;28;95591;-52
2021/09/21 07:05:59;;;;;;;7.22;3.40;;;19.90;62.90;;;;;;4987100;28;95917;-51
2021/09/21 07:08:31;;;;;;;6.95;3.10;;;19.90;62.90;;;;;;4982327;28;95980;-50
2021/09/21 07:11:03;;;;;;;6.93;2.95;;;20.00;62.90;;;;;;4979920;28;95432;-48
2021/09/21 07:13:34;;;;;;;5.10;2.60;;;19.90;62.80;;;;;;5017754;27;96305;-50
2021/09/21 07:16:07;;;;;;;5.35;2.85;;;20.00;62.70;;;;;;4983144;28;97112;-49
2021/09/21 07:18:38;;;;;;;4.03;2.22;;;20.10;62.80;;;;;;4987336;28;95704;-50
2021/09/21 07:21:09;;;;;;;5.07;3.08;;;20.00;62.70;;;;;;4987016;28;95531;-52
2021/09/21 07:23:40;;;;;;;5.68;2.90;;;20.10;62.70;;;;;;4986554;28;95986;-49
2021/09/21 07:26:12;;;;;;;7.60;2.78;;;20.20;54.80;;;;;;4974595;28;95925;-49
2021/09/21 07:28:43;;;;;;;5.70;3.20;;;20.10;62.50;;;;;;4978896;28;95800;-50
2021/09/21 07:31:15;;;;;;;3.45;2.30;;;20.10;62.50;;;;;;4975845;28;95750;-50
2021/09/21 07:33:48;;;;;;;6.10;2.42;;;20.10;62.20;;;;;;4978409;28;95349;-49
2021/09/21 07:36:17;;;;;;;5.80;2.40;;;20.20;62.40;;;;;;4976288;28;96382;-54
2021/09/21 07:38:47;;;;;;;7.15;2.65;;;20.20;62.40;;;;;;4974312;28;96081;-48
2021/09/21 07:41:17;;;;;;;6.20;2.70;;;20.20;62.40;;;;;;5017772;27;95401;-49
2021/09/21 07:43:50;;;;;;;3.45;2.20;;;20.20;62.20;;;;;;4979072;28;95624;-52
2021/09/21 07:46:20;;;;;;;4.50;2.50;;;20.20;62.00;;;;;;4976307;28;96578;-50
2021/09/21 07:48:51;;;;;;;3.30;2.03;;;20.20;62.00;;;;;;4984547;28;95841;-50
2021/09/21 07:51:23;;;;;;;5.18;2.47;;;20.20;62.00;;;;;;4981858;28;96117;-51
2021/09/21 07:53:55;;;;;;;4.55;2.80;;;20.20;62.00;;;;;;4978575;28;95993;-48
2021/09/21 07:56:28;;;;;;;4.85;2.22;;;20.20;61.90;;;;;;5010509;27;97697;-50
2021/09/21 07:59:02;;;;;;;3.40;2.03;;;20.20;54.00;;;;;;4981503;28;95801;-49
2021/09/21 08:01:37;;;;;;;5.32;2.63;;;20.20;57.20;;;;;;4979640;28;95565;-52
2021/09/21 08:04:10;;;;;;;4.90;2.45;;;20.10;61.60;;;;;;4995525;28;95976;-50
2021/09/21 08:06:42;;;;;;;4.05;2.85;;;20.10;61.60;;;;;;4986108;28;95932;-48
2021/09/21 08:09:12;;;;;;;8.30;3.43;;;20.10;61.50;;;;;;4979688;28;95890;-49
2021/09/21 08:11:44;;;;;;;7.93;3.90;;;20.00;61.50;;;;;;4985154;28;95332;-50
2021/09/21 08:14:16;;;;;;;7.65;4.20;;;20.10;61.50;;;;;;4986323;28;95730;-51
2021/09/21 08:16:49;;;;;;;6.70;3.80;;;20.00;61.60;;;;;;4985505;28;96782;-48
2021/09/21 08:19:25;;;;;;;6.15;3.25;;;20.00;61.80;;;;;;4984539;28;95691;-48
2021/09/21 08:21:56;;;;;;;5.85;3.08;;;20.00;61.80;;;;;;4986081;28;95779;-49
2021/09/21 08:24:26;;;;;;;;;;;20.00;61.90;;;;;;4981449;28;96076;-49
2021/09/21 08:26:56;;;;;;;8.40;3.13;;;19.90;61.90;;;;;;4985279;28;95695;-48
2021/09/21 08:29:27;;;;;;;5.43;3.20;;;19.90;61.90;;;;;;4983666;28;95896;-49
2021/09/21 08:31:59;;;;;;;4.18;2.78;;;19.90;62.00;;;;;;4976626;28;95676;-49
2021/09/21 08:34:30;;;;;;;5.63;3.55;;;19.90;62.00;;;;;;4986531;28;96960;-48
2021/09/21 08:37:01;;;;;;;7.47;3.20;;;19.80;62.10;;;;;;4982573;28;98014;-49
2021/09/21 08:39:31;;;;;;;7.40;3.05;;;19.80;62.20;;;;;;4985106;28;98060;-48
2021/09/21 08:42:01;;;;;;;5.70;3.22;;;19.80;62.20;;;;;;4985757;28;96417;-50
2021/09/21 08:44:31;;;;;;;6.03;3.40;;;19.70;62.20;;;;;;4986532;28;95709;-48
2021/09/21 08:47:01;;;;;;;5.07;2.78;;;19.70;62.30;;;;;;4981460;28;96196;-49
2021/09/21 08:49:33;;;;;;;4.82;2.38;;;19.70;62.40;;;;;;4985147;28;96251;-50
2021/09/21 08:52:06;;;;;;;4.13;2.80;;;19.70;62.40;;;;;;4983301;28;95893;-48
2021/09/21 08:54:37;;;;;;;6.25;3.45;;;19.60;62.50;;;;;;4984158;28;95795;-49
2021/09/21 08:57:11;;;;;;;4.20;3.03;;;19.60;62.40;;;;;;4985847;28;96552;-50
2021/09/21 08:59:44;;;;;;;5.60;2.78;;;19.60;62.50;;;;;;4983304;28;95419;-49
2021/09/21 09:02:16;;;;;;;3.10;2.60;;;19.60;62.50;;;;;;4977393;28;95625;-52
2021/09/21 09:05:02;;;;;;;4.13;2.95;;;19.50;62.60;;;;;;4985608;28;95508;-49
2021/09/21 09:07:48;;;;;;;3.67;2.55;;;19.50;62.60;;;;;;4982819;28;96546;-52
2021/09/21 09:10:24;;;;;;;3.95;2.45;;;19.50;62.70;;;;;;4977101;28;96240;-49
2021/09/21 09:12:56;;;;;;;5.25;3.13;;;19.50;62.70;;;;;;4986007;28;95341;-50
2021/09/21 09:15:28;;;;;;;2.88;2.17;;;19.50;55.40;;;;;;4979648;28;96370;-48
2021/09/21 09:18:06;;;;;;;4.53;3.03;;;19.50;62.80;;;;;;4985480;28;96522;-50
2021/09/21 09:20:44;;;;;;;;;;;19.40;62.80;;;;;;4982485;28;95904;-48
2021/09/21 09:23:17;;;;;;;4.53;1.90;;;19.40;62.90;;;;;;4986312;28;95819;-48
2021/09/21 09:25:50;;;;;;;3.58;2.33;;;19.40;62.90;;;;;;4979867;28;96034;-50
2021/09/21 09:28:25;;;;;;;4.25;2.72;;;19.30;62.90;;;;;;4983941;28;95850;-50
2021/09/21 09:30:58;;;;;;;6.30;2.60;;;19.30;63.10;;;;;;4980077;28;97440;-49
2021/09/21 09:33:33;;;;;;;3.17;2.30;;;19.30;63.00;;;;;;4985344;28;95627;-48
2021/09/21 09:36:04;;;;;;;4.35;2.50;;;19.30;63.20;;;;;;4986362;28;98569;-49
2021/09/21 09:38:42;;;;;;;5.97;3.00;;;19.20;63.10;;;;;;4982704;28;96551;-50
2021/09/21 09:41:15;;;;;;;4.07;3.22;;;19.30;63.20;;;;;;4980919;28;95928;-49
2021/09/21 09:43:45;;;;;;;4.50;2.45;;;19.20;63.30;;;;;;5015145;27;96365;-49
2021/09/21 09:46:19;;;;;;;4.90;3.42;;;19.20;63.30;;;;;;4981841;28;95410;-50
2021/09/21 09:48:57;;;;;;;4.20;2.70;;;19.20;63.40;;;;;;4987762;28;95935;-50
2021/09/21 09:51:29;;;;;;;6.32;3.30;;;19.10;63.50;;;;;;4982101;28;95811;-49
2021/09/21 09:54:00;;;;;;;;;;;19.00;63.70;;;;;;4988799;28;95178;-50
2021/09/21 09:56:33;;;;;;;4.30;2.63;;;19.00;63.90;;;;;;4993059;28;95862;-50
2021/09/21 09:59:06;;;;;;;5.72;2.83;;;19.00;63.90;;;;;;4990161;28;97530;-52
2021/09/21 10:01:37;;;;;;;3.53;2.55;;;18.90;64.00;;;;;;4981440;28;95983;-52
2021/09/21 10:04:08;;;;;;;4.38;2.60;;;18.80;64.10;;;;;;4991855;28;95703;-52
2021/09/21 10:06:43;;;;;;;5.63;2.65;;;18.90;64.10;;;;;;4991301;28;95376;-49
2021/09/21 10:09:19;;;;;;;3.83;2.67;;;18.80;64.20;;;;;;4986427;28;95956;-53
2021/09/21 10:11:57;;;;;;;3.30;2.35;;;18.80;64.00;;;;;;4988467;28;95951;-53
2021/09/21 10:14:28;;;;;;;3.22;2.38;;;18.80;64.10;;;;;;4991400;28;95554;-50
2021/09/21 10:17:07;;;;;;;4.65;2.33;;;18.80;64.10;;;;;;4985073;28;95923;-50
2021/09/21 10:19:40;;;;;;;3.83;2.80;;;18.70;64.10;;;;;;4990788;28;95962;-50
2021/09/21 10:22:10;;;;;;;7.25;2.95;;;18.70;64.20;;;;;;4988233;28;95810;-50
2021/09/21 10:24:50;;;;;;;4.40;2.65;;;18.70;64.20;;;;;;4991088;28;95189;-49
2021/09/21 10:27:25;;;;;;;3.05;2.60;;;18.60;64.20;;;;;;4991156;28;95758;-52
2021/09/21 10:30:08;;;;;;;3.95;2.58;;;18.60;64.20;;;;;;4988141;28;95953;-51
2021/09/21 10:32:48;;;;;;;3.63;2.30;;;18.50;64.30;;;;;;4984910;28;96431;-50
2021/09/21 10:35:22;;;;;;;5.10;2.33;;;18.50;64.30;;;;;;4997885;28;95739;-52
2021/09/21 10:38:11;;;;;;;3.75;2.30;;;18.50;64.30;;;;;;4990581;28;95670;-51
2021/09/21 10:40:43;;;;;;;2.97;1.90;;;18.50;64.40;;;;;;4989394;28;95830;-52
2021/09/21 10:43:24;;;;;;;8.13;2.53;;;18.40;64.40;;;;;;4989961;28;95850;-52
2021/09/21 10:46:22;;;;;;;3.83;2.58;;;18.40;64.50;;;;;;4991611;28;96081;-53
2021/09/21 10:49:00;;;;;;;3.83;2.25;;;18.40;64.60;;;;;;4989564;28;95760;-52
2021/09/21 10:51:34;;;;;;;3.45;2.25;;;18.40;64.60;;;;;;4987321;28;95907;-54
2021/09/21 10:54:06;;;;;;;3.38;1.83;;;18.30;64.60;;;;;;4982747;28;95785;-51
2021/09/21 10:56:41;;;;;;;3.15;2.10;;;18.30;64.60;;;;;;4978915;28;98182;-54
2021/09/21 10:59:19;;;;;;;3.58;1.88;;;18.30;64.70;;;;;;4984149;28;96049;-53
2021/09/21 11:01:50;;;;;;;3.58;2.28;;;18.30;56.40;;;;;;4981132;28;97603;-54
2021/09/21 11:04:22;;;;;;;4.22;2.38;;;18.20;64.80;;;;;;4981458;28;96058;-52
2021/09/21 11:06:53;;;;;;;5.40;2.30;;;18.20;64.80;;;;;;4985385;28;95812;-51
2021/09/21 11:09:27;;;;;;;4.25;2.13;;;18.20;64.90;;;;;;4976129;28;95774;-50
2021/09/21 11:12:10;;;;;;;3.33;2.08;;;18.10;64.80;;;;;;4984380;28;95963;-54
2021/09/21 11:14:42;;;;;;;4.07;1.90;;;18.10;64.90;;;;;;4976945;28;95815;-51
2021/09/21 11:17:14;;;;;;;2.65;1.75;;;18.10;64.90;;;;;;4988796;27;97317;-53
2021/09/21 11:19:45;;;;;;;4.13;2.25;;;18.10;65.00;;;;;;4988184;28;96070;-52
2021/09/21 11:22:22;;;;;;;4.35;2.65;;;18.00;65.00;;;;;;4987147;28;96066;-51
2021/09/21 11:24:58;;;;;;;3.05;2.28;;;18.00;65.00;;;;;;4988554;28;95980;-51
2021/09/21 11:27:29;;;;;;;4.30;1.88;;;18.00;65.10;;;;;;4985296;28;95599;-50
2021/09/21 11:30:17;;;;;;;2.05;1.70;;;18.00;65.10;;;;;;4996031;28;96135;-52
2021/09/21 11:32:51;;;;;;;3.42;2.00;;;17.90;65.10;;;;;;4984900;28;96583;-51
2021/09/21 11:35:22;;;;;;;2.28;2.00;;;17.90;65.10;;;;;;4978832;28;95847;-51
2021/09/21 11:37:53;;;;;;;3.30;2.13;;;17.90;65.30;;;;;;4986443;28;95894;-51
2021/09/21 11:40:25;;;;;;;;;;;17.80;65.30;;;;;;4987068;28;95286;-51
2021/09/21 11:42:57;;;;;;;2.58;1.85;;;17.80;65.30;;;;;;4986901;28;95898;-49
2021/09/21 11:45:28;;;;;;;2.38;1.63;;;17.80;65.30;;;;;;4979015;28;98116;-53
2021/09/21 11:48:00;;;;;;;2.97;1.85;;;17.80;65.40;;;;;;4965078;28;97627;-53
2021/09/21 11:50:33;;;;;;;4.65;2.30;;;17.80;65.70;;;;;;4976608;28;95725;-53
2021/09/21 11:53:08;;;;;;;5.75;2.55;;;17.80;65.80;;;;;;4974547;28;95945;-52
2021/09/21 11:55:56;;;;;;;3.78;2.58;;;17.70;66.00;;;;;;4976619;28;95917;-50
2021/09/21 11:58:29;;;;;;;3.60;2.03;;;17.60;66.00;;;;;;4973083;28;96064;-52
2021/09/21 12:01:05;;;;;;;2.83;2.08;;;17.70;66.20;;;;;;4965760;28;95373;-53
2021/09/21 12:03:37;;;;;;;4.57;2.80;;;17.60;66.20;;;;;;4979389;28;96571;-52
2021/09/21 12:06:08;;;;;;;5.53;3.13;;;17.60;66.40;;;;;;4980750;28;96053;-51
2021/09/21 12:08:42;;;;;;;4.00;2.50;;;17.50;66.40;;;;;;4974034;28;95911;-51
2021/09/21 12:11:16;;;;;;;3.80;2.47;;;17.50;67.10;;;;;;4977207;28;96117;-51
2021/09/21 12:13:51;;;;;;;3.25;2.80;;;17.50;66.40;;;;;;4981679;28;95950;-53
2021/09/21 12:16:23;;;;;;;4.53;2.53;;;17.50;66.50;;;;;;4977610;28;96205;-51
2021/09/21 12:18:56;;;;;;;3.40;2.50;;;17.50;66.60;;;;;;4981217;28;96266;-51
2021/09/21 12:21:31;;;;;;;3.42;2.40;;;17.50;66.60;;;;;;4982511;28;96389;-51
2021/09/21 12:24:06;;;;;;;4.95;2.67;;;17.40;66.60;;;;;;4982861;28;96444;-52
2021/09/21 12:26:36;;;;;;;4.07;2.75;;;17.40;66.70;;;;;;4982483;28;96021;-51
2021/09/21 12:29:08;;;;;;;3.42;2.38;;;17.40;66.60;;;;;;4982128;28;96169;-52
2021/09/21 12:31:43;;;;;;;6.10;2.83;;;17.40;66.60;;;;;;4966187;28;95523;-52
2021/09/21 12:34:14;;;;;;;4.65;2.65;;;17.40;66.60;;;;;;4962577;28;96577;-51
2021/09/21 12:36:48;;;;;;;5.97;2.67;;;17.40;66.60;;;;;;4962210;28;95902;-52
2021/09/21 12:39:23;;;;;;;3.95;2.42;;;17.40;66.60;;;;;;4962301;28;95872;-53
2021/09/21 12:41:53;;;;;;;3.97;2.22;;;17.40;66.70;;;;;;4962782;28;95786;-51
2021/09/21 12:44:23;;;;;;;3.58;2.65;;;17.40;66.70;;;;;;4962337;28;95847;-51
2021/09/21 12:46:56;;;;;;;3.30;2.33;;;17.40;58.30;;;;;;4956116;28;96014;-50
2021/09/21 12:49:29;;;;;;;4.78;3.03;;;17.40;66.70;;;;;;4993507;28;96323;-51
2021/09/21 12:52:00;;;;;;;4.55;2.85;;;17.30;66.70;;;;;;4961685;28;95735;-51
2021/09/21 12:54:32;;;;;;;;;;;17.30;66.70;;;;;;4963352;28;95979;-51
2021/09/21 12:57:03;;;;;;;5.45;2.90;;;17.30;67.20;;;;;;4963181;28;96274;-51
2021/09/21 12:59:35;;;;;;;4.57;2.92;;;17.40;67.50;;;;;;4962305;28;95797;-52
2021/09/21 13:02:06;;;;;;;;;;;17.40;67.40;;;;;;4956081;28;95967;-50
2021/09/21 13:04:47;;;;;;;4.35;2.92;;;17.40;67.30;;;;;;4962477;28;96131;-50
2021/09/21 13:07:21;;;;;;;3.70;2.50;;;17.40;67.20;;;;;;4961530;28;95799;-50
2021/09/21 13:09:52;;;;;;;3.47;2.58;;;17.40;67.30;;;;;;4956440;28;95477;-50
2021/09/21 13:12:27;;;;;;;2.55;1.92;;;17.50;67.40;;;;;;4963622;28;95960;-52
2021/09/21 13:14:58;;;;;;;4.03;2.33;;;17.40;67.20;;;;;;4962219;28;95847;-54
2021/09/21 13:17:28;;;;;;;4.30;2.40;;;17.40;67.00;;;;;;4961407;28;95748;-52
2021/09/21 13:19:58;;;;;;;4.15;2.75;;;17.50;67.00;;;;;;4961560;28;95426;-50
2021/09/21 13:22:29;;;;;;;3.45;2.05;;;17.40;67.00;;;;;;4963553;28;96516;-50
2021/09/21 13:25:00;;;;;;;2.65;2.05;;;17.40;66.90;;;;;;4961782;28;96028;-50
2021/09/21 13:27:30;;;;;;;3.17;2.22;;;17.40;66.90;;;;;;4961797;28;95775;-51
2021/09/21 13:30:05;;;;;;;2.65;2.10;;;17.40;67.10;;;;;;4963903;28;97810;-54
2021/09/21 13:32:36;;;;;;;5.07;2.88;;;17.40;67.10;;;;;;4964433;28;95846;-51